sensor_id;sensor_type;location;lat;lon;timestamp;pressure;altitude;pressure_sealevel;temperature;humidity
8286;BME280;4181;43.416;24.598;2022-12-18T00:00:41;100898.91;;;9.16;100.00
8286;BME280;4181;43.416;24.598;2022-12-18T00:03:07;100917.34;;;9.14;100.00
8286;BME280;4181;43.416;24.598;2022-12-18T00:05:32;100900.97;;;8.96;100.00
8286;BME280;4181;43.416;24.598;2022-12-18T00:07:58;100901.78;;;8.96;100.00
8286;BME280;4181;43.416;24.598;2022-12-18T00:10:23;100908.13;;;8.90;100.00
8286;BME280;4181;43.416;24.598;2022-12-18T00:12:49;100910.34;;;8.75;100.00
8286;BME280;4181;43.416;24.598;2022-12-18T00:15:14;100936.47;;;9.08;100.00
8286;BME280;4181;43.416;24.598;2022-12-18T00:17:39;100941.47;;;9.11;100.00
8286;BME280;4181;43.416;24.598;2022-12-18T00:20:05;100960.28;;;8.87;100.00
8286;BME280;4181;43.416;24.598;2022-12-18T00:22:31;100943.91;;;8.94;100.00
8286;BME280;4181;43.416;24.598;2022-12-18T00:24:56;100942.63;;;8.96;100.00
8286;BME280;4181;43.416;24.598;2022-12-18T00:27:22;100959.75;;;9.04;100.00
8286;BME280;4181;43.416;24.598;2022-12-18T00:29:48;100932.47;;;8.85;100.00
8286;BME280;4181;43.416;24.598;2022-12-18T00:32:13;100964.16;;;8.98;100.00
8286;BME280;4181;43.416;24.598;2022-12-18T00:34:39;100962.91;;;9.01;100.00
8286;BME280;4181;43.416;24.598;2022-12-18T00:37:04;100961.25;;;9.00;100.00
8286;BME280;4181;43.416;24.598;2022-12-18T00:39:30;100952.75;;;8.89;100.00
8286;BME280;4181;43.416;24.598;2022-12-18T00:41:55;100988.84;;;9.03;100.00
8286;BME280;4181;43.416;24.598;2022-12-18T00:44:39;100999.00;;;8.89;100.00
8286;BME280;4181;43.416;24.598;2022-12-18T00:47:06;100993.03;;;8.68;100.00
8286;BME280;4181;43.416;24.598;2022-12-18T00:49:31;100989.78;;;8.59;100.00
8286;BME280;4181;43.416;24.598;2022-12-18T00:51:57;100984.69;;;8.63;100.00
8286;BME280;4181;43.416;24.598;2022-12-18T00:54:23;100982.31;;;8.79;100.00
8286;BME280;4181;43.416;24.598;2022-12-18T00:56:48;100980.41;;;8.80;100.00
8286;BME280;4181;43.416;24.598;2022-12-18T00:59:13;100983.88;;;8.93;100.00
8286;BME280;4181;43.416;24.598;2022-12-18T01:01:42;100977.47;;;8.81;100.00
8286;BME280;4181;43.416;24.598;2022-12-18T01:04:07;100971.50;;;8.66;100.00
8286;BME280;4181;43.416;24.598;2022-12-18T01:06:33;100976.97;;;8.60;100.00
8286;BME280;4181;43.416;24.598;2022-12-18T01:08:58;100986.53;;;8.75;100.00
8286;BME280;4181;43.416;24.598;2022-12-18T01:11:24;100998.78;;;8.91;100.00
8286;BME280;4181;43.416;24.598;2022-12-18T01:13:52;101007.81;;;8.85;100.00
8286;BME280;4181;43.416;24.598;2022-12-18T01:16:17;101022.88;;;8.87;100.00
8286;BME280;4181;43.416;24.598;2022-12-18T01:18:44;101014.56;;;8.76;100.00
8286;BME280;4181;43.416;24.598;2022-12-18T01:21:12;101006.81;;;8.79;100.00
8286;BME280;4181;43.416;24.598;2022-12-18T01:23:40;100996.13;;;8.78;100.00
8286;BME280;4181;43.416;24.598;2022-12-18T01:26:10;101012.22;;;8.86;100.00
8286;BME280;4181;43.416;24.598;2022-12-18T01:28:36;101047.78;;;8.91;100.00
8286;BME280;4181;43.416;24.598;2022-12-18T01:31:18;101040.63;;;8.90;100.00
8286;BME280;4181;43.416;24.598;2022-12-18T01:33:44;101056.38;;;8.81;100.00
8286;BME280;4181;43.416;24.598;2022-12-18T01:36:24;101040.25;;;8.86;100.00
8286;BME280;4181;43.416;24.598;2022-12-18T01:38:51;101054.69;;;8.87;100.00
8286;BME280;4181;43.416;24.598;2022-12-18T01:41:20;101048.03;;;8.76;100.00
8286;BME280;4181;43.416;24.598;2022-12-18T01:43:52;101062.53;;;8.70;100.00
8286;BME280;4181;43.416;24.598;2022-12-18T01:46:20;101062.34;;;8.65;100.00
8286;BME280;4181;43.416;24.598;2022-12-18T01:48:48;101065.31;;;8.57;100.00
8286;BME280;4181;43.416;24.598;2022-12-18T01:51:15;101071.00;;;8.49;100.00
8286;BME280;4181;43.416;24.598;2022-12-18T01:53:41;101067.41;;;8.55;100.00
8286;BME280;4181;43.416;24.598;2022-12-18T01:56:12;101055.66;;;8.61;100.00
8286;BME280;4181;43.416;24.598;2022-12-18T02:01:16;101059.81;;;8.70;100.00
8286;BME280;4181;43.416;24.598;2022-12-18T02:03:43;101063.63;;;8.56;100.00
8286;BME280;4181;43.416;24.598;2022-12-18T02:09:05;101080.31;;;8.66;100.00
8286;BME280;4181;43.416;24.598;2022-12-18T02:11:49;101080.75;;;8.63;100.00
8286;BME280;4181;43.416;24.598;2022-12-18T02:17:09;101075.50;;;8.68;100.00
8286;BME280;4181;43.416;24.598;2022-12-18T02:22:37;101083.25;;;8.65;100.00
8286;BME280;4181;43.416;24.598;2022-12-18T02:27:37;101085.97;;;8.65;100.00
8286;BME280;4181;43.416;24.598;2022-12-18T02:30:06;101080.94;;;8.68;100.00
8286;BME280;4181;43.416;24.598;2022-12-18T02:32:35;101077.59;;;8.66;100.00
8286;BME280;4181;43.416;24.598;2022-12-18T02:35:04;101074.47;;;8.69;100.00
8286;BME280;4181;43.416;24.598;2022-12-18T02:37:31;101075.31;;;8.63;100.00
8286;BME280;4181;43.416;24.598;2022-12-18T02:39:59;101103.78;;;8.61;100.00
8286;BME280;4181;43.416;24.598;2022-12-18T02:42:26;101116.78;;;8.59;100.00
8286;BME280;4181;43.416;24.598;2022-12-18T02:44:53;101111.34;;;8.59;100.00
8286;BME280;4181;43.416;24.598;2022-12-18T02:47:22;101097.56;;;8.47;100.00
8286;BME280;4181;43.416;24.598;2022-12-18T02:50:13;101135.63;;;8.54;100.00
8286;BME280;4181;43.416;24.598;2022-12-18T02:53:02;101128.72;;;8.45;100.00
8286;BME280;4181;43.416;24.598;2022-12-18T02:58:51;101136.06;;;8.51;100.00
8286;BME280;4181;43.416;24.598;2022-12-18T03:06:55;101135.41;;;8.49;100.00
8286;BME280;4181;43.416;24.598;2022-12-18T03:09:32;101135.84;;;8.46;100.00
8286;BME280;4181;43.416;24.598;2022-12-18T03:12:24;101148.16;;;8.55;100.00
8286;BME280;4181;43.416;24.598;2022-12-18T03:15:02;101149.19;;;8.60;100.00
8286;BME280;4181;43.416;24.598;2022-12-18T03:17:31;101169.09;;;8.41;100.00
8286;BME280;4181;43.416;24.598;2022-12-18T03:20:02;101167.44;;;8.40;100.00
8286;BME280;4181;43.416;24.598;2022-12-18T03:22:30;101163.25;;;8.18;100.00
8286;BME280;4181;43.416;24.598;2022-12-18T03:24:58;101181.25;;;8.39;100.00
8286;BME280;4181;43.416;24.598;2022-12-18T03:27:28;101169.13;;;8.35;100.00
8286;BME280;4181;43.416;24.598;2022-12-18T03:30:01;101188.38;;;8.33;100.00
8286;BME280;4181;43.416;24.598;2022-12-18T03:32:39;101174.34;;;8.30;100.00
8286;BME280;4181;43.416;24.598;2022-12-18T03:35:07;101183.16;;;8.25;100.00
8286;BME280;4181;43.416;24.598;2022-12-18T03:37:36;101197.97;;;8.23;100.00
8286;BME280;4181;43.416;24.598;2022-12-18T03:40:02;101209.69;;;8.30;100.00
8286;BME280;4181;43.416;24.598;2022-12-18T03:42:44;101202.59;;;8.29;100.00
8286;BME280;4181;43.416;24.598;2022-12-18T03:45:32;101213.91;;;8.32;100.00
8286;BME280;4181;43.416;24.598;2022-12-18T03:48:04;101216.00;;;8.24;100.00
8286;BME280;4181;43.416;24.598;2022-12-18T03:56:00;101233.09;;;8.11;100.00
8286;BME280;4181;43.416;24.598;2022-12-18T03:58:27;101203.41;;;8.03;100.00
8286;BME280;4181;43.416;24.598;2022-12-18T04:00:56;101221.63;;;8.09;100.00
8286;BME280;4181;43.416;24.598;2022-12-18T04:03:25;101198.38;;;7.87;100.00
8286;BME280;4181;43.416;24.598;2022-12-18T04:05:54;101226.84;;;8.11;100.00
8286;BME280;4181;43.416;24.598;2022-12-18T04:08:21;101206.34;;;7.95;100.00
8286;BME280;4181;43.416;24.598;2022-12-18T04:10:47;101244.38;;;8.08;100.00
8286;BME280;4181;43.416;24.598;2022-12-18T04:13:21;101233.94;;;8.05;100.00
8286;BME280;4181;43.416;24.598;2022-12-18T04:15:47;101243.16;;;8.17;100.00
8286;BME280;4181;43.416;24.598;2022-12-18T04:18:13;101232.88;;;8.06;100.00
8286;BME280;4181;43.416;24.598;2022-12-18T04:20:38;101223.25;;;7.84;100.00
8286;BME280;4181;43.416;24.598;2022-12-18T04:23:03;101256.31;;;7.94;100.00
8286;BME280;4181;43.416;24.598;2022-12-18T04:25:29;101262.75;;;8.00;100.00
8286;BME280;4181;43.416;24.598;2022-12-18T04:27:54;101271.97;;;7.99;100.00
8286;BME280;4181;43.416;24.598;2022-12-18T04:30:20;101272.19;;;7.97;100.00
8286;BME280;4181;43.416;24.598;2022-12-18T04:32:45;101272.41;;;8.02;100.00
8286;BME280;4181;43.416;24.598;2022-12-18T04:35:10;101264.44;;;7.88;100.00
8286;BME280;4181;43.416;24.598;2022-12-18T04:37:37;101270.75;;;8.08;100.00
8286;BME280;4181;43.416;24.598;2022-12-18T04:40:02;101260.47;;;7.97;100.00
8286;BME280;4181;43.416;24.598;2022-12-18T04:42:28;101259.81;;;7.75;100.00
8286;BME280;4181;43.416;24.598;2022-12-18T04:44:53;101294.56;;;7.99;100.00
8286;BME280;4181;43.416;24.598;2022-12-18T04:47:19;101298.72;;;7.89;100.00
8286;BME280;4181;43.416;24.598;2022-12-18T04:49:44;101282.41;;;7.95;100.00
8286;BME280;4181;43.416;24.598;2022-12-18T04:52:10;101278.22;;;7.86;100.00
8286;BME280;4181;43.416;24.598;2022-12-18T04:54:35;101280.31;;;7.84;100.00
8286;BME280;4181;43.416;24.598;2022-12-18T04:57:00;101294.94;;;7.83;100.00
8286;BME280;4181;43.416;24.598;2022-12-18T04:59:26;101292.81;;;7.72;100.00
8286;BME280;4181;43.416;24.598;2022-12-18T05:01:51;101296.38;;;7.66;100.00
8286;BME280;4181;43.416;24.598;2022-12-18T05:04:17;101303.66;;;7.65;100.00
8286;BME280;4181;43.416;24.598;2022-12-18T05:06:42;101299.09;;;7.66;100.00
8286;BME280;4181;43.416;24.598;2022-12-18T05:09:08;101307.41;;;7.64;100.00
8286;BME280;4181;43.416;24.598;2022-12-18T05:11:36;101302.06;;;7.84;100.00
8286;BME280;4181;43.416;24.598;2022-12-18T05:14:02;101312.53;;;7.94;100.00
8286;BME280;4181;43.416;24.598;2022-12-18T05:16:27;101312.09;;;7.90;100.00
8286;BME280;4181;43.416;24.598;2022-12-18T05:18:52;101285.75;;;7.84;100.00
8286;BME280;4181;43.416;24.598;2022-12-18T05:21:18;101315.88;;;8.02;100.00
8286;BME280;4181;43.416;24.598;2022-12-18T05:23:43;101334.25;;;7.94;100.00
8286;BME280;4181;43.416;24.598;2022-12-18T05:26:14;101323.19;;;8.02;100.00
8286;BME280;4181;43.416;24.598;2022-12-18T05:28:40;101316.28;;;7.93;100.00
8286;BME280;4181;43.416;24.598;2022-12-18T05:31:05;101316.22;;;7.80;100.00
8286;BME280;4181;43.416;24.598;2022-12-18T05:33:32;101320.25;;;7.90;100.00
8286;BME280;4181;43.416;24.598;2022-12-18T05:36:03;101331.78;;;7.99;100.00
8286;BME280;4181;43.416;24.598;2022-12-18T05:38:30;101343.47;;;7.93;100.00
8286;BME280;4181;43.416;24.598;2022-12-18T05:40:56;101342.63;;;7.92;100.00
8286;BME280;4181;43.416;24.598;2022-12-18T05:43:23;101338.81;;;7.80;100.00
8286;BME280;4181;43.416;24.598;2022-12-18T05:45:50;101368.50;;;7.88;100.00
8286;BME280;4181;43.416;24.598;2022-12-18T05:48:17;101354.00;;;7.68;100.00
8286;BME280;4181;43.416;24.598;2022-12-18T05:50:44;101362.44;;;7.86;100.00
8286;BME280;4181;43.416;24.598;2022-12-18T05:53:11;101366.63;;;7.82;100.00
8286;BME280;4181;43.416;24.598;2022-12-18T05:55:39;101371.03;;;7.90;100.00
8286;BME280;4181;43.416;24.598;2022-12-18T05:58:06;101366.66;;;7.95;100.00
8286;BME280;4181;43.416;24.598;2022-12-18T06:00:35;101371.22;;;7.88;100.00
8286;BME280;4181;43.416;24.598;2022-12-18T06:03:02;101377.31;;;7.90;100.00
8286;BME280;4181;43.416;24.598;2022-12-18T06:05:27;101382.75;;;7.90;100.00
8286;BME280;4181;43.416;24.598;2022-12-18T06:07:53;101378.94;;;7.78;100.00
8286;BME280;4181;43.416;24.598;2022-12-18T06:10:18;101377.84;;;7.66;100.00
8286;BME280;4181;43.416;24.598;2022-12-18T06:12:44;101397.28;;;7.69;100.00
8286;BME280;4181;43.416;24.598;2022-12-18T06:15:10;101395.59;;;7.68;100.00
8286;BME280;4181;43.416;24.598;2022-12-18T06:17:35;101395.63;;;7.75;100.00
8286;BME280;4181;43.416;24.598;2022-12-18T06:20:01;101397.94;;;7.78;100.00
8286;BME280;4181;43.416;24.598;2022-12-18T06:22:27;101401.53;;;7.85;100.00
8286;BME280;4181;43.416;24.598;2022-12-18T06:24:53;101394.88;;;7.88;100.00
8286;BME280;4181;43.416;24.598;2022-12-18T06:27:18;101382.66;;;7.70;100.00
8286;BME280;4181;43.416;24.598;2022-12-18T06:29:44;101383.91;;;7.68;100.00
8286;BME280;4181;43.416;24.598;2022-12-18T06:32:10;101406.56;;;7.88;100.00
8286;BME280;4181;43.416;24.598;2022-12-18T06:34:39;101424.59;;;8.02;100.00
8286;BME280;4181;43.416;24.598;2022-12-18T06:37:04;101429.56;;;7.92;100.00
8286;BME280;4181;43.416;24.598;2022-12-18T06:39:30;101437.50;;;7.87;100.00
8286;BME280;4181;43.416;24.598;2022-12-18T06:41:55;101447.13;;;7.96;100.00
8286;BME280;4181;43.416;24.598;2022-12-18T06:44:24;101447.09;;;7.90;100.00
8286;BME280;4181;43.416;24.598;2022-12-18T06:46:49;101416.16;;;7.78;100.00
8286;BME280;4181;43.416;24.598;2022-12-18T06:49:15;101430.38;;;7.86;100.00
8286;BME280;4181;43.416;24.598;2022-12-18T06:51:41;101416.16;;;7.84;100.00
8286;BME280;4181;43.416;24.598;2022-12-18T06:54:08;101446.31;;;7.96;100.00
8286;BME280;4181;43.416;24.598;2022-12-18T06:56:33;101457.88;;;8.04;100.00
8286;BME280;4181;43.416;24.598;2022-12-18T06:58:59;101461.81;;;8.02;100.00
8286;BME280;4181;43.416;24.598;2022-12-18T07:01:25;101457.63;;;7.99;100.00
8286;BME280;4181;43.416;24.598;2022-12-18T07:03:55;101463.50;;;8.03;100.00
8286;BME280;4181;43.416;24.598;2022-12-18T07:06:22;101473.53;;;8.02;100.00
8286;BME280;4181;43.416;24.598;2022-12-18T07:08:49;101478.56;;;8.05;100.00
8286;BME280;4181;43.416;24.598;2022-12-18T07:11:23;101467.25;;;8.08;100.00
8286;BME280;4181;43.416;24.598;2022-12-18T07:13:48;101460.78;;;8.03;100.00
8286;BME280;4181;43.416;24.598;2022-12-18T07:16:16;101466.06;;;8.17;100.00
8286;BME280;4181;43.416;24.598;2022-12-18T07:18:42;101457.66;;;8.06;100.00
8286;BME280;4181;43.416;24.598;2022-12-18T07:21:11;101484.03;;;8.18;100.00
8286;BME280;4181;43.416;24.598;2022-12-18T07:23:37;101461.81;;;8.08;100.00
8286;BME280;4181;43.416;24.598;2022-12-18T07:26:13;101486.03;;;8.31;100.00
8286;BME280;4181;43.416;24.598;2022-12-18T07:28:41;101474.41;;;8.16;100.00
8286;BME280;4181;43.416;24.598;2022-12-18T07:31:13;101485.59;;;8.27;100.00
8286;BME280;4181;43.416;24.598;2022-12-18T07:33:40;101455.16;;;8.11;100.00
8286;BME280;4181;43.416;24.598;2022-12-18T07:36:07;101479.53;;;8.38;100.00
8286;BME280;4181;43.416;24.598;2022-12-18T07:38:34;101462.00;;;8.47;100.00
8286;BME280;4181;43.416;24.598;2022-12-18T07:41:09;101491.34;;;8.78;100.00
8286;BME280;4181;43.416;24.598;2022-12-18T07:43:36;101471.84;;;8.61;100.00
8286;BME280;4181;43.416;24.598;2022-12-18T07:46:02;101485.69;;;8.66;100.00
8286;BME280;4181;43.416;24.598;2022-12-18T07:48:28;101510.63;;;8.83;100.00
8286;BME280;4181;43.416;24.598;2022-12-18T07:50:58;101506.88;;;8.77;100.00
8286;BME280;4181;43.416;24.598;2022-12-18T07:53:24;101503.72;;;8.74;100.00
8286;BME280;4181;43.416;24.598;2022-12-18T07:55:57;101508.53;;;8.85;100.00
8286;BME280;4181;43.416;24.598;2022-12-18T07:58:23;101505.59;;;8.86;100.00
8286;BME280;4181;43.416;24.598;2022-12-18T08:00:48;101521.34;;;8.91;100.00
8286;BME280;4181;43.416;24.598;2022-12-18T08:03:14;101499.94;;;8.81;100.00
8286;BME280;4181;43.416;24.598;2022-12-18T08:05:39;101512.97;;;8.92;100.00
8286;BME280;4181;43.416;24.598;2022-12-18T08:08:05;101527.44;;;9.13;100.00
8286;BME280;4181;43.416;24.598;2022-12-18T08:10:30;101532.66;;;9.08;100.00
8286;BME280;4181;43.416;24.598;2022-12-18T08:12:56;101531.19;;;8.98;100.00
8286;BME280;4181;43.416;24.598;2022-12-18T08:15:21;101548.78;;;9.09;100.00
8286;BME280;4181;43.416;24.598;2022-12-18T08:17:47;101550.66;;;9.09;100.00
8286;BME280;4181;43.416;24.598;2022-12-18T08:20:13;101556.94;;;8.96;100.00
8286;BME280;4181;43.416;24.598;2022-12-18T08:22:43;101560.50;;;9.03;100.00
8286;BME280;4181;43.416;24.598;2022-12-18T08:25:09;101577.28;;;9.13;100.00
8286;BME280;4181;43.416;24.598;2022-12-18T08:27:35;101564.72;;;9.19;100.00
8286;BME280;4181;43.416;24.598;2022-12-18T08:30:01;101572.88;;;9.19;100.00
8286;BME280;4181;43.416;24.598;2022-12-18T08:32:28;101554.84;;;8.98;100.00
8286;BME280;4181;43.416;24.598;2022-12-18T08:34:53;101586.72;;;9.11;100.00
8286;BME280;4181;43.416;24.598;2022-12-18T08:37:19;101569.31;;;9.05;100.00
8286;BME280;4181;43.416;24.598;2022-12-18T08:39:44;101580.00;;;9.13;100.00
8286;BME280;4181;43.416;24.598;2022-12-18T08:42:10;101589.44;;;9.24;100.00
8286;BME280;4181;43.416;24.598;2022-12-18T08:44:54;101581.28;;;9.24;100.00
8286;BME280;4181;43.416;24.598;2022-12-18T08:47:19;101586.72;;;9.24;100.00
8286;BME280;4181;43.416;24.598;2022-12-18T08:49:45;101567.44;;;9.25;100.00
8286;BME280;4181;43.416;24.598;2022-12-18T08:52:10;101575.63;;;9.19;100.00
8286;BME280;4181;43.416;24.598;2022-12-18T08:54:41;101563.00;;;8.91;100.00
8286;BME280;4181;43.416;24.598;2022-12-18T08:57:06;101585.44;;;9.07;100.00
8286;BME280;4181;43.416;24.598;2022-12-18T08:59:32;101586.94;;;9.16;100.00
8286;BME280;4181;43.416;24.598;2022-12-18T09:01:57;101586.47;;;8.99;100.00
8286;BME280;4181;43.416;24.598;2022-12-18T09:04:23;101590.66;;;9.08;100.00
8286;BME280;4181;43.416;24.598;2022-12-18T09:06:48;101602.38;;;8.95;100.00
8286;BME280;4181;43.416;24.598;2022-12-18T09:09:15;101603.84;;;9.05;100.00
8286;BME280;4181;43.416;24.598;2022-12-18T09:11:41;101591.69;;;8.87;100.00
8286;BME280;4181;43.416;24.598;2022-12-18T09:14:06;101581.22;;;8.91;100.00
8286;BME280;4181;43.416;24.598;2022-12-18T09:16:32;101611.22;;;9.24;100.00
8286;BME280;4181;43.416;24.598;2022-12-18T09:19:00;101597.22;;;9.40;100.00
8286;BME280;4181;43.416;24.598;2022-12-18T09:21:28;101592.00;;;9.71;100.00
8286;BME280;4181;43.416;24.598;2022-12-18T09:23:55;101610.03;;;9.98;100.00
8286;BME280;4181;43.416;24.598;2022-12-18T09:26:21;101601.13;;;10.35;100.00
8286;BME280;4181;43.416;24.598;2022-12-18T09:28:47;101589.25;;;10.74;100.00
8286;BME280;4181;43.416;24.598;2022-12-18T09:31:13;101590.75;;;11.07;100.00
8286;BME280;4181;43.416;24.598;2022-12-18T09:33:38;101586.72;;;11.10;100.00
8286;BME280;4181;43.416;24.598;2022-12-18T09:36:06;101595.50;;;11.18;100.00
8286;BME280;4181;43.416;24.598;2022-12-18T09:38:33;101618.09;;;11.01;100.00
8286;BME280;4181;43.416;24.598;2022-12-18T09:41:15;101625.38;;;11.13;100.00
8286;BME280;4181;43.416;24.598;2022-12-18T09:43:48;101637.50;;;10.86;100.00
8286;BME280;4181;43.416;24.598;2022-12-18T09:46:31;101630.69;;;10.58;100.00
8286;BME280;4181;43.416;24.598;2022-12-18T09:49:02;101632.53;;;10.64;100.00
8286;BME280;4181;43.416;24.598;2022-12-18T09:51:36;101650.06;;;10.30;100.00
8286;BME280;4181;43.416;24.598;2022-12-18T09:54:12;101644.41;;;10.25;100.00
8286;BME280;4181;43.416;24.598;2022-12-18T09:56:41;101640.63;;;10.33;100.00
8286;BME280;4181;43.416;24.598;2022-12-18T09:59:38;101634.16;;;10.14;100.00
8286;BME280;4181;43.416;24.598;2022-12-18T10:02:20;101648.19;;;9.98;100.00
8286;BME280;4181;43.416;24.598;2022-12-18T10:05:12;101644.41;;;9.92;100.00
8286;BME280;4181;43.416;24.598;2022-12-18T10:10:53;101652.16;;;9.63;100.00
8286;BME280;4181;43.416;24.598;2022-12-18T10:13:42;101667.03;;;9.54;100.00
8286;BME280;4181;43.416;24.598;2022-12-18T10:16:17;101661.56;;;9.47;100.00
8286;BME280;4181;43.416;24.598;2022-12-18T10:21:36;101655.06;;;9.55;100.00
8286;BME280;4181;43.416;24.598;2022-12-18T10:26:52;101654.84;;;9.50;100.00
8286;BME280;4181;43.416;24.598;2022-12-18T10:29:18;101675.81;;;9.43;100.00
8286;BME280;4181;43.416;24.598;2022-12-18T10:31:44;101673.66;;;9.25;100.00
8286;BME280;4181;43.416;24.598;2022-12-18T10:34:13;101685.81;;;9.23;100.00
8286;BME280;4181;43.416;24.598;2022-12-18T10:36:38;101683.63;;;8.98;100.00
8286;BME280;4181;43.416;24.598;2022-12-18T10:39:21;101663.44;;;9.40;100.00
8286;BME280;4181;43.416;24.598;2022-12-18T10:41:47;101662.81;;;9.45;100.00
8286;BME280;4181;43.416;24.598;2022-12-18T10:44:22;101658.97;;;9.20;100.00
8286;BME280;4181;43.416;24.598;2022-12-18T10:46:50;101675.09;;;9.15;100.00
8286;BME280;4181;43.416;24.598;2022-12-18T10:49:22;101664.81;;;9.10;100.00
8286;BME280;4181;43.416;24.598;2022-12-18T10:51:49;101672.22;;;9.23;100.00
8286;BME280;4181;43.416;24.598;2022-12-18T10:54:21;101671.75;;;9.13;100.00
8286;BME280;4181;43.416;24.598;2022-12-18T10:56:47;101672.13;;;9.10;100.00
8286;BME280;4181;43.416;24.598;2022-12-18T10:59:16;101631.06;;;9.05;100.00
8286;BME280;4181;43.416;24.598;2022-12-18T11:01:54;101669.06;;;9.26;100.00
8286;BME280;4181;43.416;24.598;2022-12-18T11:09:32;101664.03;;;9.23;100.00
8286;BME280;4181;43.416;24.598;2022-12-18T11:12:00;101662.13;;;9.17;100.00
8286;BME280;4181;43.416;24.598;2022-12-18T11:14:33;101639.47;;;9.10;100.00
8286;BME280;4181;43.416;24.598;2022-12-18T11:17:00;101626.13;;;9.21;100.00
8286;BME280;4181;43.416;24.598;2022-12-18T11:19:37;101658.72;;;9.08;100.00
8286;BME280;4181;43.416;24.598;2022-12-18T11:25:19;101655.88;;;9.29;100.00
8286;BME280;4181;43.416;24.598;2022-12-18T11:28:46;101654.59;;;9.19;100.00
8286;BME280;4181;43.416;24.598;2022-12-18T11:30:44;101660.44;;;9.16;100.00
8286;BME280;4181;43.416;24.598;2022-12-18T11:33:19;101656.66;;;9.10;100.00
8286;BME280;4181;43.416;24.598;2022-12-18T11:38:45;101659.78;;;9.07;100.00
8286;BME280;4181;43.416;24.598;2022-12-18T11:41:29;101661.28;;;9.16;100.00
8286;BME280;4181;43.416;24.598;2022-12-18T11:44:29;101661.88;;;9.12;100.00
8286;BME280;4181;43.416;24.598;2022-12-18T11:47:03;101668.16;;;9.06;100.00
8286;BME280;4181;43.416;24.598;2022-12-18T11:49:33;101683.66;;;9.12;100.00
8286;BME280;4181;43.416;24.598;2022-12-18T11:54:31;101682.59;;;9.00;100.00
8286;BME280;4181;43.416;24.598;2022-12-18T11:57:19;101675.47;;;9.05;100.00
8286;BME280;4181;43.416;24.598;2022-12-18T12:00:18;101687.50;;;9.24;100.00
8286;BME280;4181;43.416;24.598;2022-12-18T12:03:18;101689.78;;;9.20;100.00
8286;BME280;4181;43.416;24.598;2022-12-18T12:06:10;101677.88;;;9.21;100.00
8286;BME280;4181;43.416;24.598;2022-12-18T12:09:37;101675.19;;;9.41;100.00
8286;BME280;4181;43.416;24.598;2022-12-18T12:14:47;101687.69;;;9.16;100.00
8286;BME280;4181;43.416;24.598;2022-12-18T12:17:42;101685.22;;;9.40;100.00
8286;BME280;4181;43.416;24.598;2022-12-18T12:23:29;101685.84;;;9.36;100.00
8286;BME280;4181;43.416;24.598;2022-12-18T12:26:06;101685.00;;;9.29;100.00
8286;BME280;4181;43.416;24.598;2022-12-18T12:34:18;101685.44;;;9.39;100.00
8286;BME280;4181;43.416;24.598;2022-12-18T12:39:27;101690.25;;;9.43;100.00
8286;BME280;4181;43.416;24.598;2022-12-18T12:41:54;101687.09;;;9.33;100.00
8286;BME280;4181;43.416;24.598;2022-12-18T12:44:50;101684.75;;;9.17;100.00
8286;BME280;4181;43.416;24.598;2022-12-18T12:47:23;101692.97;;;9.37;100.00
8286;BME280;4181;43.416;24.598;2022-12-18T12:49:51;101681.13;;;9.04;100.00
8286;BME280;4181;43.416;24.598;2022-12-18T12:52:30;101691.09;;;9.31;100.00
8286;BME280;4181;43.416;24.598;2022-12-18T12:55:00;101702.63;;;9.33;100.00
8286;BME280;4181;43.416;24.598;2022-12-18T12:57:34;101698.59;;;9.29;100.00
8286;BME280;4181;43.416;24.598;2022-12-18T13:00:13;101717.03;;;9.27;100.00
8286;BME280;4181;43.416;24.598;2022-12-18T13:08:04;101723.97;;;9.29;100.00
8286;BME280;4181;43.416;24.598;2022-12-18T13:34:20;101744.84;;;9.09;100.00
8286;BME280;4181;43.416;24.598;2022-12-18T13:36:47;101748.31;;;8.96;100.00
8286;BME280;4181;43.416;24.598;2022-12-18T13:39:32;101749.78;;;8.92;100.00
8286;BME280;4181;43.416;24.598;2022-12-18T13:44:37;101752.44;;;8.79;100.00
8286;BME280;4181;43.416;24.598;2022-12-18T13:47:25;101768.13;;;8.77;100.00
8286;BME280;4181;43.416;24.598;2022-12-18T13:49:53;101761.81;;;8.77;100.00
8286;BME280;4181;43.416;24.598;2022-12-18T13:52:25;101772.88;;;8.69;100.00
8286;BME280;4181;43.416;24.598;2022-12-18T13:54:59;101760.84;;;8.57;100.00
8286;BME280;4181;43.416;24.598;2022-12-18T13:57:34;101787.75;;;8.73;100.00
8286;BME280;4181;43.416;24.598;2022-12-18T14:00:24;101757.06;;;8.58;100.00
8286;BME280;4181;43.416;24.598;2022-12-18T14:02:51;101789.81;;;8.64;100.00
8286;BME280;4181;43.416;24.598;2022-12-18T14:05:36;101797.97;;;8.64;100.00
8286;BME280;4181;43.416;24.598;2022-12-18T14:08:10;101801.81;;;8.49;100.00
8286;BME280;4181;43.416;24.598;2022-12-18T14:10:41;101816.13;;;8.57;100.00
8286;BME280;4181;43.416;24.598;2022-12-18T14:13:08;101790.59;;;8.58;100.00
8286;BME280;4181;43.416;24.598;2022-12-18T14:15:39;101807.00;;;8.71;100.00
8286;BME280;4181;43.416;24.598;2022-12-18T14:18:19;101823.28;;;8.65;100.00
8286;BME280;4181;43.416;24.598;2022-12-18T14:20:47;101835.56;;;8.54;100.00
8286;BME280;4181;43.416;24.598;2022-12-18T14:23:42;101835.94;;;8.51;100.00
8286;BME280;4181;43.416;24.598;2022-12-18T14:26:25;101834.41;;;8.42;100.00
8286;BME280;4181;43.416;24.598;2022-12-18T14:28:53;101836.88;;;8.37;100.00
8286;BME280;4181;43.416;24.598;2022-12-18T14:31:22;101850.28;;;8.39;100.00
8286;BME280;4181;43.416;24.598;2022-12-18T14:33:48;101845.63;;;8.33;100.00
8286;BME280;4181;43.416;24.598;2022-12-18T14:36:19;101851.28;;;8.38;100.00
8286;BME280;4181;43.416;24.598;2022-12-18T14:38:58;101840.28;;;8.25;100.00
8286;BME280;4181;43.416;24.598;2022-12-18T14:41:26;101843.84;;;8.04;100.00
8286;BME280;4181;43.416;24.598;2022-12-18T14:43:54;101817.34;;;7.92;100.00
8286;BME280;4181;43.416;24.598;2022-12-18T14:46:37;101862.88;;;8.04;100.00
8286;BME280;4181;43.416;24.598;2022-12-18T14:49:16;101871.66;;;8.06;100.00
8286;BME280;4181;43.416;24.598;2022-12-18T14:51:53;101863.38;;;8.14;100.00